sensor_id;sensor_type;location;lat;lon;timestamp;temperature;humidity
8043;DHT22;4064;48.132;11.366;2023-02-18T00:01:12;10.40;99.90
8043;DHT22;4064;48.132;11.366;2023-02-18T00:03:38;10.40;99.90
8043;DHT22;4064;48.132;11.366;2023-02-18T00:06:19;10.30;99.90
8043;DHT22;4064;48.132;11.366;2023-02-18T00:08:45;10.30;99.90
8043;DHT22;4064;48.132;11.366;2023-02-18T00:11:12;10.20;99.90
8043;DHT22;4064;48.132;11.366;2023-02-18T00:13:38;10.20;99.90
8043;DHT22;4064;48.132;11.366;2023-02-18T00:16:08;10.20;99.90
8043;DHT22;4064;48.132;11.366;2023-02-18T00:18:34;10.20;99.90
8043;DHT22;4064;48.132;11.366;2023-02-18T00:21:03;10.20;99.90
8043;DHT22;4064;48.132;11.366;2023-02-18T00:23:29;10.20;99.90
8043;DHT22;4064;48.132;11.366;2023-02-18T00:26:06;10.10;99.90
8043;DHT22;4064;48.132;11.366;2023-02-18T00:28:32;10.10;99.90
8043;DHT22;4064;48.132;11.366;2023-02-18T00:30:58;10.00;99.90
8043;DHT22;4064;48.132;11.366;2023-02-18T00:33:24;10.00;99.90
8043;DHT22;4064;48.132;11.366;2023-02-18T00:35:50;10.00;99.90
8043;DHT22;4064;48.132;11.366;2023-02-18T00:38:15;9.90;99.90
8043;DHT22;4064;48.132;11.366;2023-02-18T00:40:42;9.90;99.90
8043;DHT22;4064;48.132;11.366;2023-02-18T00:43:08;9.80;99.90
8043;DHT22;4064;48.132;11.366;2023-02-18T00:45:34;9.80;99.90
8043;DHT22;4064;48.132;11.366;2023-02-18T00:48:01;9.80;99.90
8043;DHT22;4064;48.132;11.366;2023-02-18T00:50:27;9.80;99.90
8043;DHT22;4064;48.132;11.366;2023-02-18T00:52:53;9.80;99.90
8043;DHT22;4064;48.132;11.366;2023-02-18T00:55:18;9.80;99.90
8043;DHT22;4064;48.132;11.366;2023-02-18T00:57:44;9.80;99.90
8043;DHT22;4064;48.132;11.366;2023-02-18T01:00:10;9.80;99.90
8043;DHT22;4064;48.132;11.366;2023-02-18T01:02:36;9.80;99.90
8043;DHT22;4064;48.132;11.366;2023-02-18T01:05:02;9.80;99.90
8043;DHT22;4064;48.132;11.366;2023-02-18T01:07:27;9.80;99.90
8043;DHT22;4064;48.132;11.366;2023-02-18T01:09:53;9.70;99.90
8043;DHT22;4064;48.132;11.366;2023-02-18T01:12:19;9.70;99.90
8043;DHT22;4064;48.132;11.366;2023-02-18T01:14:45;9.70;99.90
8043;DHT22;4064;48.132;11.366;2023-02-18T01:17:11;9.60;99.90
8043;DHT22;4064;48.132;11.366;2023-02-18T01:19:36;9.70;99.90
8043;DHT22;4064;48.132;11.366;2023-02-18T01:22:02;9.70;99.90
8043;DHT22;4064;48.132;11.366;2023-02-18T01:24:28;9.70;99.90
8043;DHT22;4064;48.132;11.366;2023-02-18T01:26:53;9.70;99.90
8043;DHT22;4064;48.132;11.366;2023-02-18T01:29:19;9.70;99.90
8043;DHT22;4064;48.132;11.366;2023-02-18T01:31:45;9.70;99.90
8043;DHT22;4064;48.132;11.366;2023-02-18T01:34:11;9.60;99.90
8043;DHT22;4064;48.132;11.366;2023-02-18T01:36:36;9.60;99.90
8043;DHT22;4064;48.132;11.366;2023-02-18T01:39:04;9.50;99.90
8043;DHT22;4064;48.132;11.366;2023-02-18T01:41:30;9.50;99.90
8043;DHT22;4064;48.132;11.366;2023-02-18T01:44:17;9.50;99.90
8043;DHT22;4064;48.132;11.366;2023-02-18T01:46:43;9.60;99.90
8043;DHT22;4064;48.132;11.366;2023-02-18T01:49:11;9.60;99.90
8043;DHT22;4064;48.132;11.366;2023-02-18T01:51:42;9.60;99.90
8043;DHT22;4064;48.132;11.366;2023-02-18T01:59:56;9.70;99.90
8043;DHT22;4064;48.132;11.366;2023-02-18T02:02:26;9.70;99.90
8043;DHT22;4064;48.132;11.366;2023-02-18T02:04:52;9.70;99.90
8043;DHT22;4064;48.132;11.366;2023-02-18T02:07:21;9.70;99.90
8043;DHT22;4064;48.132;11.366;2023-02-18T02:09:49;9.70;99.90
8043;DHT22;4064;48.132;11.366;2023-02-18T02:42:07;10.10;99.90
8043;DHT22;4064;48.132;11.366;2023-02-18T02:44:44;10.10;99.90
8043;DHT22;4064;48.132;11.366;2023-02-18T02:48:22;10.10;99.90
8043;DHT22;4064;48.132;11.366;2023-02-18T02:50:24;10.20;99.90
8043;DHT22;4064;48.132;11.366;2023-02-18T02:52:57;10.20;99.90
8043;DHT22;4064;48.132;11.366;2023-02-18T02:55:24;10.10;99.90
8043;DHT22;4064;48.132;11.366;2023-02-18T02:57:53;10.10;99.90
8043;DHT22;4064;48.132;11.366;2023-02-18T03:00:26;10.10;99.90
8043;DHT22;4064;48.132;11.366;2023-02-18T03:03:30;10.10;99.90
8043;DHT22;4064;48.132;11.366;2023-02-18T03:06:23;10.00;99.90
8043;DHT22;4064;48.132;11.366;2023-02-18T03:09:04;10.00;99.90
8043;DHT22;4064;48.132;11.366;2023-02-18T03:11:58;9.90;99.90
8043;DHT22;4064;48.132;11.366;2023-02-18T03:14:33;9.90;99.90
8043;DHT22;4064;48.132;11.366;2023-02-18T03:17:08;9.90;99.90
8043;DHT22;4064;48.132;11.366;2023-02-18T03:19:48;9.90;99.90
8043;DHT22;4064;48.132;11.366;2023-02-18T03:22:20;10.00;99.90
8043;DHT22;4064;48.132;11.366;2023-02-18T03:24:50;10.00;99.90
8043;DHT22;4064;48.132;11.366;2023-02-18T03:29:48;10.10;99.90
8043;DHT22;4064;48.132;11.366;2023-02-18T03:32:18;10.10;99.90
8043;DHT22;4064;48.132;11.366;2023-02-18T03:34:49;10.10;99.90
8043;DHT22;4064;48.132;11.366;2023-02-18T03:37:17;10.20;99.90
8043;DHT22;4064;48.132;11.366;2023-02-18T03:39:47;10.10;99.90
8043;DHT22;4064;48.132;11.366;2023-02-18T03:42:16;10.20;99.90
8043;DHT22;4064;48.132;11.366;2023-02-18T03:44:43;10.20;99.90
8043;DHT22;4064;48.132;11.366;2023-02-18T03:47:10;10.20;99.90
8043;DHT22;4064;48.132;11.366;2023-02-18T03:49:36;10.20;99.90
8043;DHT22;4064;48.132;11.366;2023-02-18T03:52:01;10.20;99.90
8043;DHT22;4064;48.132;11.366;2023-02-18T03:54:27;10.20;99.90
8043;DHT22;4064;48.132;11.366;2023-02-18T03:56:53;10.20;99.90
8043;DHT22;4064;48.132;11.366;2023-02-18T03:59:19;10.20;99.90
8043;DHT22;4064;48.132;11.366;2023-02-18T04:01:44;10.20;99.90
8043;DHT22;4064;48.132;11.366;2023-02-18T04:04:10;10.20;99.90
8043;DHT22;4064;48.132;11.366;2023-02-18T04:06:36;10.20;99.90
8043;DHT22;4064;48.132;11.366;2023-02-18T04:09:02;10.20;99.90
8043;DHT22;4064;48.132;11.366;2023-02-18T04:11:39;10.20;99.90
8043;DHT22;4064;48.132;11.366;2023-02-18T04:14:06;10.10;99.90
8043;DHT22;4064;48.132;11.366;2023-02-18T04:16:32;10.10;99.90
8043;DHT22;4064;48.132;11.366;2023-02-18T04:18:57;10.10;99.90
8043;DHT22;4064;48.132;11.366;2023-02-18T04:21:23;10.10;99.90
8043;DHT22;4064;48.132;11.366;2023-02-18T04:23:49;10.10;99.90
8043;DHT22;4064;48.132;11.366;2023-02-18T04:26:15;10.10;99.90
8043;DHT22;4064;48.132;11.366;2023-02-18T04:28:40;10.10;99.90
8043;DHT22;4064;48.132;11.366;2023-02-18T04:31:06;10.10;99.90
8043;DHT22;4064;48.132;11.366;2023-02-18T04:33:32;10.10;99.90
8043;DHT22;4064;48.132;11.366;2023-02-18T04:35:58;10.00;99.90
8043;DHT22;4064;48.132;11.366;2023-02-18T04:38:23;10.00;99.90
8043;DHT22;4064;48.132;11.366;2023-02-18T04:40:49;10.00;99.90
8043;DHT22;4064;48.132;11.366;2023-02-18T04:43:15;10.00;99.90
8043;DHT22;4064;48.132;11.366;2023-02-18T04:45:41;10.00;99.90
8043;DHT22;4064;48.132;11.366;2023-02-18T04:48:06;10.00;99.90
8043;DHT22;4064;48.132;11.366;2023-02-18T04:50:32;10.00;99.90
8043;DHT22;4064;48.132;11.366;2023-02-18T04:52:58;10.00;99.90
8043;DHT22;4064;48.132;11.366;2023-02-18T04:55:24;10.00;99.90
8043;DHT22;4064;48.132;11.366;2023-02-18T04:57:50;10.00;99.90
8043;DHT22;4064;48.132;11.366;2023-02-18T05:00:17;10.00;99.90
8043;DHT22;4064;48.132;11.366;2023-02-18T05:02:44;10.00;99.90
8043;DHT22;4064;48.132;11.366;2023-02-18T05:05:10;10.00;99.90
8043;DHT22;4064;48.132;11.366;2023-02-18T05:07:36;10.00;99.90
8043;DHT22;4064;48.132;11.366;2023-02-18T05:10:03;10.00;99.90
8043;DHT22;4064;48.132;11.366;2023-02-18T05:12:29;10.00;99.90
8043;DHT22;4064;48.132;11.366;2023-02-18T05:14:55;10.00;99.90
8043;DHT22;4064;48.132;11.366;2023-02-18T05:17:20;10.00;99.90
8043;DHT22;4064;48.132;11.366;2023-02-18T05:19:46;10.00;99.90
8043;DHT22;4064;48.132;11.366;2023-02-18T05:22:12;10.00;99.90
8043;DHT22;4064;48.132;11.366;2023-02-18T05:24:38;10.00;99.90
8043;DHT22;4064;48.132;11.366;2023-02-18T05:27:03;10.00;99.90
8043;DHT22;4064;48.132;11.366;2023-02-18T05:29:29;10.00;99.90
8043;DHT22;4064;48.132;11.366;2023-02-18T05:31:55;10.00;99.90
8043;DHT22;4064;48.132;11.366;2023-02-18T05:34:20;10.00;99.90
8043;DHT22;4064;48.132;11.366;2023-02-18T05:36:46;10.00;99.90
8043;DHT22;4064;48.132;11.366;2023-02-18T05:39:12;10.00;99.90
8043;DHT22;4064;48.132;11.366;2023-02-18T05:41:38;10.00;99.90
8043;DHT22;4064;48.132;11.366;2023-02-18T05:44:04;10.00;99.90
8043;DHT22;4064;48.132;11.366;2023-02-18T05:46:48;10.00;99.90
8043;DHT22;4064;48.132;11.366;2023-02-18T05:49:14;10.10;99.90
8043;DHT22;4064;48.132;11.366;2023-02-18T05:51:39;10.10;99.90
8043;DHT22;4064;48.132;11.366;2023-02-18T05:54:05;10.00;99.90
8043;DHT22;4064;48.132;11.366;2023-02-18T05:56:31;10.10;99.90
8043;DHT22;4064;48.132;11.366;2023-02-18T05:58:57;10.10;99.90
8043;DHT22;4064;48.132;11.366;2023-02-18T06:01:22;10.10;99.90
8043;DHT22;4064;48.132;11.366;2023-02-18T06:03:48;10.00;99.90
8043;DHT22;4064;48.132;11.366;2023-02-18T06:06:14;10.10;99.90
8043;DHT22;4064;48.132;11.366;2023-02-18T06:08:39;10.10;99.90
8043;DHT22;4064;48.132;11.366;2023-02-18T06:11:05;10.00;99.90
8043;DHT22;4064;48.132;11.366;2023-02-18T06:13:31;10.00;99.90
8043;DHT22;4064;48.132;11.366;2023-02-18T06:15:57;10.10;99.90
8043;DHT22;4064;48.132;11.366;2023-02-18T06:18:23;10.10;99.90
8043;DHT22;4064;48.132;11.366;2023-02-18T06:20:50;10.10;99.90
8043;DHT22;4064;48.132;11.366;2023-02-18T06:23:15;10.10;99.90
8043;DHT22;4064;48.132;11.366;2023-02-18T06:25:41;10.10;99.90
8043;DHT22;4064;48.132;11.366;2023-02-18T06:28:07;10.10;99.90
8043;DHT22;4064;48.132;11.366;2023-02-18T06:30:33;10.10;99.90
8043;DHT22;4064;48.132;11.366;2023-02-18T06:32:59;10.10;99.90
8043;DHT22;4064;48.132;11.366;2023-02-18T06:35:28;10.10;99.90
8043;DHT22;4064;48.132;11.366;2023-02-18T06:37:54;10.20;99.90
8043;DHT22;4064;48.132;11.366;2023-02-18T06:40:20;10.20;99.90
8043;DHT22;4064;48.132;11.366;2023-02-18T06:42:45;10.20;99.90
8043;DHT22;4064;48.132;11.366;2023-02-18T06:45:11;10.20;99.90
8043;DHT22;4064;48.132;11.366;2023-02-18T06:47:37;10.30;99.90
8043;DHT22;4064;48.132;11.366;2023-02-18T06:50:03;10.30;99.90
8043;DHT22;4064;48.132;11.366;2023-02-18T06:52:29;10.30;99.90
8043;DHT22;4064;48.132;11.366;2023-02-18T06:54:57;10.30;99.90
8043;DHT22;4064;48.132;11.366;2023-02-18T06:57:23;10.30;99.90
8043;DHT22;4064;48.132;11.366;2023-02-18T06:59:49;10.40;99.90
8043;DHT22;4064;48.132;11.366;2023-02-18T07:02:15;10.40;99.90
8043;DHT22;4064;48.132;11.366;2023-02-18T07:04:40;10.40;99.90
8043;DHT22;4064;48.132;11.366;2023-02-18T07:07:06;10.50;99.90
8043;DHT22;4064;48.132;11.366;2023-02-18T07:09:32;10.50;99.90
8043;DHT22;4064;48.132;11.366;2023-02-18T07:11:57;10.50;99.90
8043;DHT22;4064;48.132;11.366;2023-02-18T07:14:23;10.60;99.90
8043;DHT22;4064;48.132;11.366;2023-02-18T07:16:49;10.60;99.90
8043;DHT22;4064;48.132;11.366;2023-02-18T07:19:16;10.60;99.90
8043;DHT22;4064;48.132;11.366;2023-02-18T07:21:42;10.60;99.90
8043;DHT22;4064;48.132;11.366;2023-02-18T07:24:07;10.60;99.90
8043;DHT22;4064;48.132;11.366;2023-02-18T07:26:33;10.60;99.90
8043;DHT22;4064;48.132;11.366;2023-02-18T07:28:59;10.60;99.90
8043;DHT22;4064;48.132;11.366;2023-02-18T07:31:25;10.70;99.90
8043;DHT22;4064;48.132;11.366;2023-02-18T07:33:50;10.60;99.90
8043;DHT22;4064;48.132;11.366;2023-02-18T07:36:16;10.60;99.90
8043;DHT22;4064;48.132;11.366;2023-02-18T07:38:42;10.60;99.90
8043;DHT22;4064;48.132;11.366;2023-02-18T07:41:18;10.60;99.90
8043;DHT22;4064;48.132;11.366;2023-02-18T07:43:44;10.60;99.90
8043;DHT22;4064;48.132;11.366;2023-02-18T07:46:10;10.60;99.90
8043;DHT22;4064;48.132;11.366;2023-02-18T07:48:36;10.60;99.90
8043;DHT22;4064;48.132;11.366;2023-02-18T07:51:05;10.60;99.90
8043;DHT22;4064;48.132;11.366;2023-02-18T07:53:31;10.60;99.90
8043;DHT22;4064;48.132;11.366;2023-02-18T07:55:58;10.60;99.90
8043;DHT22;4064;48.132;11.366;2023-02-18T07:58:30;10.60;99.90
8043;DHT22;4064;48.132;11.366;2023-02-18T08:00:57;10.70;99.90
8043;DHT22;4064;48.132;11.366;2023-02-18T08:03:25;10.70;99.90
8043;DHT22;4064;48.132;11.366;2023-02-18T08:05:51;10.80;99.90
8043;DHT22;4064;48.132;11.366;2023-02-18T08:08:21;10.80;99.90
8043;DHT22;4064;48.132;11.366;2023-02-18T08:10:47;10.80;99.90
8043;DHT22;4064;48.132;11.366;2023-02-18T08:13:13;10.90;99.90
8043;DHT22;4064;48.132;11.366;2023-02-18T08:15:39;10.90;99.90
8043;DHT22;4064;48.132;11.366;2023-02-18T08:18:07;10.90;99.90
8043;DHT22;4064;48.132;11.366;2023-02-18T08:20:37;10.90;99.90
8043;DHT22;4064;48.132;11.366;2023-02-18T08:23:04;11.00;99.90
8043;DHT22;4064;48.132;11.366;2023-02-18T08:25:31;11.10;99.90
8043;DHT22;4064;48.132;11.366;2023-02-18T08:27:57;11.10;99.90
8043;DHT22;4064;48.132;11.366;2023-02-18T08:30:24;11.10;99.90
8043;DHT22;4064;48.132;11.366;2023-02-18T08:32:49;11.10;99.90
8043;DHT22;4064;48.132;11.366;2023-02-18T08:35:15;11.10;99.90
8043;DHT22;4064;48.132;11.366;2023-02-18T08:37:41;11.10;99.90
8043;DHT22;4064;48.132;11.366;2023-02-18T08:40:07;11.10;99.90
8043;DHT22;4064;48.132;11.366;2023-02-18T08:42:33;11.10;99.90
8043;DHT22;4064;48.132;11.366;2023-02-18T08:44:59;11.10;99.90
8043;DHT22;4064;48.132;11.366;2023-02-18T08:47:25;11.10;99.90
8043;DHT22;4064;48.132;11.366;2023-02-18T08:49:52;11.10;99.90
8043;DHT22;4064;48.132;11.366;2023-02-18T08:52:18;11.10;99.90
8043;DHT22;4064;48.132;11.366;2023-02-18T08:54:44;11.10;99.90
8043;DHT22;4064;48.132;11.366;2023-02-18T08:57:10;11.20;99.90
8043;DHT22;4064;48.132;11.366;2023-02-18T08:59:36;11.20;99.90
8043;DHT22;4064;48.132;11.366;2023-02-18T09:02:02;11.20;99.90
8043;DHT22;4064;48.132;11.366;2023-02-18T09:04:28;11.30;99.90
8043;DHT22;4064;48.132;11.366;2023-02-18T09:06:54;11.40;99.90
8043;DHT22;4064;48.132;11.366;2023-02-18T09:09:19;11.40;99.90
8043;DHT22;4064;48.132;11.366;2023-02-18T09:11:45;11.60;99.90
8043;DHT22;4064;48.132;11.366;2023-02-18T09:14:11;11.70;99.90
8043;DHT22;4064;48.132;11.366;2023-02-18T09:16:38;12.00;99.90
8043;DHT22;4064;48.132;11.366;2023-02-18T09:19:04;12.10;99.90
8043;DHT22;4064;48.132;11.366;2023-02-18T09:21:30;12.20;99.90
8043;DHT22;4064;48.132;11.366;2023-02-18T09:23:57;12.30;99.90
8043;DHT22;4064;48.132;11.366;2023-02-18T09:26:23;12.30;99.90
8043;DHT22;4064;48.132;11.366;2023-02-18T09:28:51;12.30;99.90
8043;DHT22;4064;48.132;11.366;2023-02-18T09:31:19;12.40;99.90
8043;DHT22;4064;48.132;11.366;2023-02-18T09:33:57;12.60;99.90
8043;DHT22;4064;48.132;11.366;2023-02-18T09:36:23;12.90;99.90
8043;DHT22;4064;48.132;11.366;2023-02-18T09:38:49;13.00;99.90
8043;DHT22;4064;48.132;11.366;2023-02-18T09:41:38;13.20;99.90
8043;DHT22;4064;48.132;11.366;2023-02-18T09:49:28;14.00;99.90
8043;DHT22;4064;48.132;11.366;2023-02-18T09:51:56;14.50;99.90
8043;DHT22;4064;48.132;11.366;2023-02-18T09:54:22;14.80;99.90
8043;DHT22;4064;48.132;11.366;2023-02-18T09:56:48;15.00;99.90
8043;DHT22;4064;48.132;11.366;2023-02-18T09:59:19;15.50;98.80
8043;DHT22;4064;48.132;11.366;2023-02-18T10:01:49;15.40;98.30
8043;DHT22;4064;48.132;11.366;2023-02-18T10:04:24;15.10;98.10
8043;DHT22;4064;48.132;11.366;2023-02-18T10:06:52;15.10;97.80
8043;DHT22;4064;48.132;11.366;2023-02-18T10:11:51;15.00;98.00
8043;DHT22;4064;48.132;11.366;2023-02-18T10:14:17;15.00;97.40
8043;DHT22;4064;48.132;11.366;2023-02-18T10:16:44;14.90;97.00
8043;DHT22;4064;48.132;11.366;2023-02-18T10:21:46;14.80;97.20
8043;DHT22;4064;48.132;11.366;2023-02-18T10:26:41;15.10;95.90
8043;DHT22;4064;48.132;11.366;2023-02-18T10:29:16;15.20;95.70
8043;DHT22;4064;48.132;11.366;2023-02-18T10:32:06;15.50;95.90
8043;DHT22;4064;48.132;11.366;2023-02-18T10:34:40;15.80;94.90
8043;DHT22;4064;48.132;11.366;2023-02-18T10:52:08;16.60;91.60
8043;DHT22;4064;48.132;11.366;2023-02-18T10:54:56;16.30;91.60
8043;DHT22;4064;48.132;11.366;2023-02-18T10:57:23;16.30;91.60
8043;DHT22;4064;48.132;11.366;2023-02-18T10:59:56;16.20;91.90
8043;DHT22;4064;48.132;11.366;2023-02-18T11:02:26;16.10;91.60
8043;DHT22;4064;48.132;11.366;2023-02-18T11:04:54;15.90;91.90
8043;DHT22;4064;48.132;11.366;2023-02-18T11:07:26;15.70;91.90
8043;DHT22;4064;48.132;11.366;2023-02-18T11:12:57;15.80;91.70
8043;DHT22;4064;48.132;11.366;2023-02-18T11:15:26;15.90;92.10
8043;DHT22;4064;48.132;11.366;2023-02-18T11:17:54;16.10;91.70
8043;DHT22;4064;48.132;11.366;2023-02-18T11:20:33;16.30;91.40
8043;DHT22;4064;48.132;11.366;2023-02-18T11:25:38;16.30;90.50
8043;DHT22;4064;48.132;11.366;2023-02-18T11:30:46;16.30;90.50
8043;DHT22;4064;48.132;11.366;2023-02-18T11:36:18;16.40;90.10
8043;DHT22;4064;48.132;11.366;2023-02-18T11:38:47;16.40;88.80
8043;DHT22;4064;48.132;11.366;2023-02-18T11:41:17;16.50;89.30
8043;DHT22;4064;48.132;11.366;2023-02-18T11:43:51;16.60;88.70
8043;DHT22;4064;48.132;11.366;2023-02-18T11:46:23;16.70;89.00
8043;DHT22;4064;48.132;11.366;2023-02-18T11:48:50;16.80;89.00
8043;DHT22;4064;48.132;11.366;2023-02-18T11:51:37;16.90;87.40
8043;DHT22;4064;48.132;11.366;2023-02-18T11:54:08;17.00;87.20
8043;DHT22;4064;48.132;11.366;2023-02-18T11:56:57;16.90;85.50
8043;DHT22;4064;48.132;11.366;2023-02-18T11:59:25;16.80;85.20
8043;DHT22;4064;48.132;11.366;2023-02-18T12:02:48;16.50;84.90
8043;DHT22;4064;48.132;11.366;2023-02-18T12:05:20;16.30;85.10
8043;DHT22;4064;48.132;11.366;2023-02-18T12:07:50;16.10;85.10
8043;DHT22;4064;48.132;11.366;2023-02-18T12:10:25;16.00;85.50
8043;DHT22;4064;48.132;11.366;2023-02-18T12:12:58;16.10;85.90
8043;DHT22;4064;48.132;11.366;2023-02-18T12:16:10;16.10;86.50
8043;DHT22;4064;48.132;11.366;2023-02-18T12:58:39;15.50;87.20
8043;DHT22;4064;48.132;11.366;2023-02-18T13:11:36;14.60;88.20
8043;DHT22;4064;48.132;11.366;2023-02-18T13:14:15;14.40;89.00
8043;DHT22;4064;48.132;11.366;2023-02-18T13:16:46;14.30;89.80
8043;DHT22;4064;48.132;11.366;2023-02-18T13:21:43;14.20;90.40
8043;DHT22;4064;48.132;11.366;2023-02-18T13:24:14;14.20;90.60
8043;DHT22;4064;48.132;11.366;2023-02-18T13:26:43;14.20;90.70
8043;DHT22;4064;48.132;11.366;2023-02-18T13:29:28;14.10;90.90
8043;DHT22;4064;48.132;11.366;2023-02-18T13:32:16;14.10;91.00
8043;DHT22;4064;48.132;11.366;2023-02-18T13:34:54;14.10;90.90
8043;DHT22;4064;48.132;11.366;2023-02-18T13:39:55;14.00;90.70
8043;DHT22;4064;48.132;11.366;2023-02-18T13:47:52;14.00;90.80
8043;DHT22;4064;48.132;11.366;2023-02-18T13:52:56;13.90;90.10
8043;DHT22;4064;48.132;11.366;2023-02-18T13:55:32;13.90;89.80
8043;DHT22;4064;48.132;11.366;2023-02-18T13:58:00;13.90;90.00
8043;DHT22;4064;48.132;11.366;2023-02-18T14:00:35;13.90;90.30
8043;DHT22;4064;48.132;11.366;2023-02-18T14:03:19;13.90;89.90
8043;DHT22;4064;48.132;11.366;2023-02-18T14:05:45;13.80;90.30
8043;DHT22;4064;48.132;11.366;2023-02-18T14:08:14;13.90;90.10
8043;DHT22;4064;48.132;11.366;2023-02-18T14:10:41;13.90;90.00
8043;DHT22;4064;48.132;11.366;2023-02-18T14:13:24;13.80;88.80
8043;DHT22;4064;48.132;11.366;2023-02-18T14:15:56;13.80;89.30
8043;DHT22;4064;48.132;11.366;2023-02-18T14:18:30;13.80;89.70
8043;DHT22;4064;48.132;11.366;2023-02-18T14:21:20;13.80;89.80
8043;DHT22;4064;48.132;11.366;2023-02-18T14:23:58;13.70;90.00
8043;DHT22;4064;48.132;11.366;2023-02-18T14:26:39;13.70;90.00
8043;DHT22;4064;48.132;11.366;2023-02-18T14:29:12;13.60;90.00
8043;DHT22;4064;48.132;11.366;2023-02-18T14:31:51;13.50;90.10
8043;DHT22;4064;48.132;11.366;2023-02-18T14:39:56;13.30;90.60
8043;DHT22;4064;48.132;11.366;2023-02-18T14:42:34;13.30;90.90
8043;DHT22;4064;48.132;11.366;2023-02-18T14:45:17;13.20;91.10
8043;DHT22;4064;48.132;11.366;2023-02-18T14:48:17;13.20;91.10
8043;DHT22;4064;48.132;11.366;2023-02-18T14:50:45;13.20;91.00
8043;DHT22;4064;48.132;11.366;2023-02-18T14:53:16;13.20;91.10
8043;DHT22;4064;48.132;11.366;2023-02-18T14:55:47;13.20;90.90
8043;DHT22;4064;48.132;11.366;2023-02-18T14:58:41;13.20;91.10
8043;DHT22;4064;48.132;11.366;2023-02-18T15:01:24;13.20;91.10
8043;DHT22;4064;48.132;11.366;2023-02-18T15:03:53;13.10;91.10
8043;DHT22;4064;48.132;11.366;2023-02-18T15:06:29;13.10;91.00
8043;DHT22;4064;48.132;11.366;2023-02-18T15:08:56;13.10;91.10
8043;DHT22;4064;48.132;11.366;2023-02-18T15:11:31;13.10;90.50
8043;DHT22;4064;48.132;11.366;2023-02-18T15:13:59;13.10;90.50
8043;DHT22;4064;48.132;11.366;2023-02-18T15:16:33;13.00;90.50
8043;DHT22;4064;48.132;11.366;2023-02-18T15:19:04;13.00;90.20
8043;DHT22;4064;48.132;11.366;2023-02-18T15:21:34;13.00;90.40
8043;DHT22;4064;48.132;11.366;2023-02-18T15:24:09;12.90;90.30
8043;DHT22;4064;48.132;11.366;2023-02-18T15:26:45;12.90;90.40
8043;DHT22;4064;48.132;11.366;2023-02-18T15:29:23;12.90;90.40
8043;DHT22;4064;48.132;11.366;2023-02-18T15:31:50;12.80;90.50
8043;DHT22;4064;48.132;11.366;2023-02-18T15:36:54;12.80;90.60
8043;DHT22;4064;48.132;11.366;2023-02-18T15:39:21;12.80;90.50
8043;DHT22;4064;48.132;11.366;2023-02-18T15:41:54;12.80;90.50
8043;DHT22;4064;48.132;11.366;2023-02-18T15:44:26;12.80;90.70
8043;DHT22;4064;48.132;11.366;2023-02-18T15:46:53;12.80;90.70
8043;DHT22;4064;48.132;11.366;2023-02-18T15:49:22;12.70;90.40
8043;DHT22;4064;48.132;11.366;2023-02-18T15:51:49;12.60;90.40
8043;DHT22;4064;48.132;11.366;2023-02-18T15:54:18;12.60;90.40
8043;DHT22;4064;48.132;11.366;2023-02-18T15:56:48;12.50;90.50
8043;DHT22;4064;48.132;11.366;2023-02-18T15:59:25;12.50;90.70
8043;DHT22;4064;48.132;11.366;2023-02-18T16:04:37;12.30;90.90
8043;DHT22;4064;48.132;11.366;2023-02-18T16:07:24;12.30;90.90
8043;DHT22;4064;48.132;11.366;2023-02-18T16:09:56;12.20;91.10
8043;DHT22;4064;48.132;11.366;2023-02-18T16:12:31;12.20;91.30
8043;DHT22;4064;48.132;11.366;2023-02-18T16:14:57;12.10;91.30
8043;DHT22;4064;48.132;11.366;2023-02-18T16:17:26;12.10;91.40
8043;DHT22;4064;48.132;11.366;2023-02-18T16:19:55;12.00;91.50
8043;DHT22;4064;48.132;11.366;2023-02-18T16:22:29;12.00;91.60
8043;DHT22;4064;48.132;11.366;2023-02-18T16:25:22;12.00;91.80
8043;DHT22;4064;48.132;11.366;2023-02-18T16:30:22;11.90;92.00
8043;DHT22;4064;48.132;11.366;2023-02-18T16:32:48;11.90;92.20
8043;DHT22;4064;48.132;11.366;2023-02-18T16:35:14;11.80;92.30
8043;DHT22;4064;48.132;11.366;2023-02-18T16:37:42;11.80;92.50
8043;DHT22;4064;48.132;11.366;2023-02-18T16:40:21;11.80;92.60
8043;DHT22;4064;48.132;11.366;2023-02-18T16:42:47;11.70;92.70
8043;DHT22;4064;48.132;11.366;2023-02-18T16:45:13;11.70;92.80
8043;DHT22;4064;48.132;11.366;2023-02-18T16:47:40;11.70;92.90
8043;DHT22;4064;48.132;11.366;2023-02-18T16:50:13;11.60;93.00
8043;DHT22;4064;48.132;11.366;2023-02-18T16:52:41;11.60;93.10
8043;DHT22;4064;48.132;11.366;2023-02-18T16:55:27;11.60;93.20
8043;DHT22;4064;48.132;11.366;2023-02-18T16:57:53;11.50;93.40
8043;DHT22;4064;48.132;11.366;2023-02-18T17:00:20;11.50;93.20
8043;DHT22;4064;48.132;11.366;2023-02-18T17:02:48;11.50;93.20
8043;DHT22;4064;48.132;11.366;2023-02-18T17:05:21;11.50;93.20
8043;DHT22;4064;48.132;11.366;2023-02-18T17:07:47;11.50;93.20
8043;DHT22;4064;48.132;11.366;2023-02-18T17:10:13;11.50;93.20
8043;DHT22;4064;48.132;11.366;2023-02-18T17:12:39;11.50;93.10
8043;DHT22;4064;48.132;11.366;2023-02-18T17:17:39;11.50;93.00
8043;DHT22;4064;48.132;11.366;2023-02-18T17:20:05;11.50;92.80
8043;DHT22;4064;48.132;11.366;2023-02-18T17:22:30;11.50;92.90
8043;DHT22;4064;48.132;11.366;2023-02-18T17:24:56;11.50;92.80
8043;DHT22;4064;48.132;11.366;2023-02-18T17:27:22;11.50;92.70
8043;DHT22;4064;48.132;11.366;2023-02-18T17:29:47;11.50;92.50
8043;DHT22;4064;48.132;11.366;2023-02-18T17:32:13;11.50;92.50
8043;DHT22;4064;48.132;11.366;2023-02-18T17:34:39;11.50;92.50
8043;DHT22;4064;48.132;11.366;2023-02-18T17:37:08;11.40;92.60
8043;DHT22;4064;48.132;11.366;2023-02-18T17:39:36;11.40;92.50
8043;DHT22;4064;48.132;11.366;2023-02-18T17:42:02;11.40;92.60
8043;DHT22;4064;48.132;11.366;2023-02-18T17:44:29;11.40;92.70
8043;DHT22;4064;48.132;11.366;2023-02-18T17:46:54;11.40;92.70
8043;DHT22;4064;48.132;11.366;2023-02-18T17:49:20;11.30;92.80
8043;DHT22;4064;48.132;11.366;2023-02-18T17:51:47;11.30;92.80
8043;DHT22;4064;48.132;11.366;2023-02-18T17:54:16;11.30;92.90
8043;DHT22;4064;48.132;11.366;2023-02-18T17:56:42;11.30;92.90
8043;DHT22;4064;48.132;11.366;2023-02-18T17:59:09;11.30;93.00
8043;DHT22;4064;48.132;11.366;2023-02-18T18:01:35;11.30;93.00
8043;DHT22;4064;48.132;11.366;2023-02-18T18:04:01;11.20;93.10
8043;DHT22;4064;48.132;11.366;2023-02-18T18:06:27;11.20;93.20
8043;DHT22;4064;48.132;11.366;2023-02-18T18:08:53;11.20;93.20
8043;DHT22;4064;48.132;11.366;2023-02-18T18:11:22;11.10;93.20
8043;DHT22;4064;48.132;11.366;2023-02-18T18:13:49;11.10;93.30
8043;DHT22;4064;48.132;11.366;2023-02-18T18:16:16;11.10;93.30
8043;DHT22;4064;48.132;11.366;2023-02-18T18:18:42;11.10;93.40
8043;DHT22;4064;48.132;11.366;2023-02-18T18:21:29;11.10;93.40
8043;DHT22;4064;48.132;11.366;2023-02-18T18:23:55;11.10;93.50
8043;DHT22;4064;48.132;11.366;2023-02-18T18:26:21;11.10;93.50
8043;DHT22;4064;48.132;11.366;2023-02-18T18:28:47;11.20;93.60
8043;DHT22;4064;48.132;11.366;2023-02-18T18:31:14;11.10;93.60
8043;DHT22;4064;48.132;11.366;2023-02-18T18:33:41;11.10;93.60
8043;DHT22;4064;48.132;11.366;2023-02-18T18:36:07;11.10;93.60
8043;DHT22;4064;48.132;11.366;2023-02-18T18:38:33;11.10;93.60